Time;durP1;ratioP1;P1;durP2;ratioP2;P2;SDS_P1;SDS_P2;PMS_P1;PMS_P2;Temp;Humidity;BMP_temperature;BMP_pressure;BME280_temperature;BME280_humidity;BME280_pressure;Samples;Min_cycle;Max_cycle;Signal;HPM_P1;HPM_P2
2024/01/11 00:00:30;;;;;;;98.13;58.30;;;;;;;-9.95;59.07;101520.06;32126331;27;40988;-70
2024/01/11 00:15:31;;;;;;;77.67;46.47;;;;;;;-9.97;59.25;101508.88;32129255;27;20467;-66
2024/01/11 00:30:31;;;;;;;81.03;53.07;;;;;;;-9.97;59.32;101488.25;32128898;27;20026;-68
2024/01/11 00:45:31;;;;;;;108.57;55.83;;;;;;;-10.14;59.09;101466.84;32116778;27;40199;-69
2024/01/11 01:00:32;;;;;;;105.33;51.13;;;;;;;-10.29;60.29;101460.03;32091217;27;41671;-68
2024/01/11 01:15:32;;;;;;;83.67;46.83;;;;;;;-10.15;60.29;101447.13;32084412;27;40319;-68
2024/01/11 01:30:32;;;;;;;105.03;49.93;;;;;;;-10.00;61.40;101434.13;32045823;27;43241;-69
2024/01/11 01:45:32;;;;;;;93.87;46.73;;;;;;;-9.85;61.18;101420.28;32111070;27;41638;-69
2024/01/11 02:00:33;;;;;;;91.37;45.00;;;;;;;-9.66;60.58;101435.63;32137414;27;42629;-69
2024/01/11 02:15:34;;;;;;;86.83;42.70;;;;;;;-9.56;61.11;101452.75;32136545;27;20031;-64
2024/01/11 02:30:35;;;;;;;77.23;42.37;;;;;;;-9.31;61.09;101448.25;32134295;27;42465;-70
2024/01/11 02:45:35;;;;;;;74.07;43.50;;;;;;;-9.21;61.99;101407.75;32110156;27;41650;-68
2024/01/11 03:00:35;;;;;;;84.57;40.17;;;;;;;-9.25;62.27;101383.69;32078775;27;20030;-69
2024/01/11 03:15:35;;;;;;;93.33;43.27;;;;;;;-9.47;61.65;101359.81;32060906;27;41892;-69
2024/01/11 03:30:36;;;;;;;92.40;35.47;;;;;;;-9.42;61.67;101388.16;32058922;27;41092;-69
2024/01/11 03:45:36;;;;;;;99.00;44.67;;;;;;;-9.26;63.21;101363.06;32067057;27;41557;-68
2024/01/11 04:00:36;;;;;;;78.33;40.10;;;;;;;-8.96;63.27;101397.19;32062408;27;20050;-66
2024/01/11 04:15:37;;;;;;;66.57;34.53;;;;;;;-8.68;62.67;101366.72;32058648;27;42989;-69
2024/01/11 04:30:37;;;;;;;68.47;31.77;;;;;;;-8.40;62.93;101351.69;32037538;27;20487;-70
2024/01/11 04:45:37;;;;;;;78.20;35.83;;;;;;;-8.18;62.35;101357.41;32017236;27;20051;-65
2024/01/11 05:00:37;;;;;;;103.27;39.70;;;;;;;-8.05;62.81;101347.75;32020471;27;40856;-65
2024/01/11 05:15:38;;;;;;;55.27;29.13;;;;;;;-7.40;62.01;101294.91;32018270;27;41727;-69
2024/01/11 05:30:38;;;;;;;60.10;31.55;;;;;;;-7.37;62.12;101288.81;32028769;27;20039;-66
2024/01/11 05:45:38;;;;;;;48.25;27.95;;;;;;;-7.17;61.04;101234.06;32035845;27;20098;-68
2024/01/11 06:00:40;;;;;;;57.28;28.60;;;;;;;-6.80;62.13;101262.63;32032265;27;41841;-63
2024/01/11 06:15:40;;;;;;;49.25;24.50;;;;;;;-6.10;60.87;101244.66;32033720;27;20039;-68
2024/01/11 06:30:40;;;;;;;45.20;24.33;;;;;;;-5.95;60.13;101203.56;31976653;27;33897;-67
2024/01/11 06:45:43;;;;;;;57.33;25.70;;;;;;;-5.66;59.46;101251.28;31994528;27;41792;-67
2024/01/11 07:00:43;;;;;;;55.10;22.88;;;;;;;-5.59;59.34;101226.00;32051413;27;20046;-67
2024/01/11 07:15:43;;;;;;;46.30;21.10;;;;;;;-5.08;59.17;101184.75;32050049;27;41842;-63
2024/01/11 07:30:44;;;;;;;37.00;16.55;;;;;;;-4.09;58.90;101167.75;32057333;27;20062;-63
2024/01/11 07:45:44;;;;;;;32.70;18.00;;;;;;;-4.00;57.11;101132.72;32053241;27;20108;-67
2024/01/11 08:00:44;;;;;;;30.40;16.65;;;;;;;-3.86;57.65;101141.81;32066048;27;20039;-67
2024/01/11 08:15:45;;;;;;;28.55;15.05;;;;;;;-3.26;57.45;101131.81;32087396;27;20038;-65
2024/01/11 08:30:45;;;;;;;31.92;14.90;;;;;;;-1.59;56.00;101143.22;32069183;27;20368;-65
2024/01/11 08:45:46;;;;;;;29.23;15.18;;;;;;;-1.51;54.87;101143.72;32078491;27;20451;-69
2024/01/11 09:00:47;;;;;;;29.30;14.60;;;;;;;-1.47;54.04;101140.06;32085221;27;20500;-70
2024/01/11 09:15:47;;;;;;;30.02;14.00;;;;;;;-1.15;53.44;101165.66;32112898;27;23867;-71
2024/01/11 09:30:49;;;;;;;20.20;11.13;;;;;;;0.40;52.38;101144.06;32088519;27;20064;-71
2024/01/11 09:45:51;;;;;;;24.40;12.15;;;;;;;-0.36;51.00;101147.06;32110041;27;20407;-67
2024/01/11 10:00:55;;;;;;;22.58;12.73;;;;;;;-0.38;50.19;101143.69;32098202;27;20490;-72
2024/01/11 10:16:09;;;;;;;28.47;13.90;;;;;;;0.10;48.99;101117.69;32057462;27;20105;-68
2024/01/11 10:31:10;;;;;;;25.13;12.67;;;;;;;0.06;47.87;101077.69;32083559;27;20034;-68
2024/01/11 10:46:11;;;;;;;22.27;12.68;;;;;;;-0.38;47.90;101047.66;32079384;27;20088;-70
2024/01/11 11:01:13;;;;;;;21.67;11.55;;;;;;;-0.39;47.89;101058.19;32089450;27;20113;-66
2024/01/11 11:16:15;;;;;;;30.70;12.20;;;;;;;-0.13;47.34;101063.88;32078342;27;20039;-65
2024/01/11 11:31:35;;;;;;;30.48;13.25;;;;;;;0.45;46.64;101070.38;32053515;27;20388;-63
2024/01/11 11:46:36;;;;;;;30.17;13.25;;;;;;;1.66;44.97;101067.09;32084106;27;20054;-67
2024/01/11 12:01:37;;;;;;;27.70;14.07;;;;;;;1.98;44.04;101035.38;32072939;27;20118;-64
2024/01/11 12:16:37;;;;;;;26.63;14.10;;;;;;;1.59;44.03;101027.19;32049698;27;29679;-64
2024/01/11 12:31:38;;;;;;;31.65;16.15;;;;;;;2.16;44.34;101012.38;32055422;27;42909;-62
2024/01/11 12:46:39;;;;;;;33.03;15.30;;;;;;;2.71;43.05;101035.19;32095971;27;20039;-62
2024/01/11 13:01:39;;;;;;;30.77;16.17;;;;;;;5.61;39.80;101039.63;32089630;27;20073;-61
2024/01/11 13:16:40;;;;;;;33.10;17.38;;;;;;;7.35;38.43;101024.91;32097075;27;20030;-62
2024/01/11 13:31:41;;;;;;;35.15;18.52;;;;;;;13.81;30.51;101017.56;32057682;27;20066;-60
2024/01/11 13:46:41;;;;;;;31.75;18.67;;;;;;;10.55;32.33;101005.94;32070242;27;20050;-61
2024/01/11 14:01:41;;;;;;;29.10;15.65;;;;;;;4.31;39.53;101025.34;32054631;27;41642;-61
2024/01/11 14:16:42;;;;;;;31.08;14.95;;;;;;;1.63;44.15;101059.41;32062939;27;42896;-60
2024/01/11 14:31:42;;;;;;;26.08;13.90;;;;;;;0.14;46.80;101064.19;32101314;27;38315;-59
2024/01/11 14:46:42;;;;;;;23.63;12.48;;;;;;;-0.70;48.91;101078.91;32100837;27;20051;-61
2024/01/11 15:01:43;;;;;;;24.83;13.00;;;;;;;-1.26;51.29;101091.19;32079783;27;20034;-59
2024/01/11 15:16:45;;;;;;;18.70;9.73;;;;;;;-1.58;52.87;101093.50;32097734;27;20952;-63
2024/01/11 15:31:46;;;;;;;20.15;8.80;;;;;;;-1.88;54.83;101087.91;32096805;27;20038;-59
2024/01/11 15:46:46;;;;;;;15.55;8.13;;;;;;;-2.20;56.61;101116.28;32095905;27;20043;-64
2024/01/11 16:01:46;;;;;;;16.00;7.43;;;;;;;-2.29;59.07;101119.25;32094345;27;20379;-62
2024/01/11 16:16:46;;;;;;;15.15;8.40;;;;;;;-2.46;59.55;101139.09;32094455;27;20083;-62
2024/01/11 16:31:47;;;;;;;18.02;8.55;;;;;;;-2.58;61.30;101144.81;32091315;27;42785;-61
2024/01/11 16:46:47;;;;;;;11.98;7.18;;;;;;;-2.67;62.65;101160.81;32089676;27;41317;-62
2024/01/11 17:01:47;;;;;;;15.35;7.55;;;;;;;-2.59;62.94;101163.97;32089934;27;20034;-64
2024/01/11 17:16:48;;;;;;;20.10;8.07;;;;;;;-2.58;64.16;101143.03;32088252;27;20030;-61
2024/01/11 17:31:48;;;;;;;19.65;8.15;;;;;;;-2.48;65.28;101160.94;31705717;27;97361;-65
2024/01/11 17:46:48;;;;;;;15.43;7.70;;;;;;;-2.44;65.10;101133.81;31563811;27;126504;-63
2024/01/11 18:01:49;;;;;;;18.42;9.00;;;;;;;-2.38;65.79;101121.34;31568065;27;98087;-61
2024/01/11 18:16:49;;;;;;;22.92;10.23;;;;;;;-2.44;66.42;101111.16;31562352;27;97440;-61
2024/01/11 18:31:49;;;;;;;24.00;11.77;;;;;;;-2.46;67.11;101128.66;31528277;27;125390;-63
2024/01/11 18:46:49;;;;;;;23.02;12.90;;;;;;;-2.52;67.34;101138.47;31546794;27;124715;-62
2024/01/11 19:01:50;;;;;;;26.38;13.25;;;;;;;-2.58;67.37;101163.91;31580003;27;113606;-61
2024/01/11 19:16:51;;;;;;;23.88;12.57;;;;;;;-2.65;67.82;101162.47;31571291;27;98022;-61
2024/01/11 19:31:52;;;;;;;26.33;14.40;;;;;;;-2.66;67.55;101152.09;31560203;27;96902;-62
2024/01/11 19:46:53;;;;;;;28.67;15.52;;;;;;;-2.69;68.50;101158.28;31545138;27;98098;-61
2024/01/11 20:01:53;;;;;;;29.33;15.57;;;;;;;-2.75;68.82;101154.16;31525853;27;100968;-59
2024/01/11 20:16:53;;;;;;;32.17;14.55;;;;;;;-2.81;69.22;101171.81;31528050;27;115790;-58
2024/01/11 20:31:54;;;;;;;25.80;13.77;;;;;;;-2.78;69.78;101188.16;31533092;27;126718;-62
2024/01/11 20:46:55;;;;;;;30.45;14.82;;;;;;;-2.67;69.40;101181.69;31530003;27;97998;-59
2024/01/11 21:01:55;;;;;;;22.92;11.35;;;;;;;-2.66;69.79;101199.06;31575769;27;97441;-60
2024/01/11 21:16:56;;;;;;;23.15;11.88;;;;;;;-2.60;70.43;101201.41;31603096;27;97039;-60
2024/01/11 21:31:57;;;;;;;29.60;12.35;;;;;;;-2.53;70.65;101200.22;31603851;27;97039;-61
2024/01/11 21:46:58;;;;;;;22.55;10.77;;;;;;;-2.51;70.59;101202.81;31603236;27;97522;-60
2024/01/11 22:01:58;;;;;;;22.15;10.55;;;;;;;-2.41;70.76;101232.84;31555041;27;98510;-62
2024/01/11 22:16:58;;;;;;;19.35;10.18;;;;;;;-2.39;71.13;101234.47;31550942;27;125552;-61
2024/01/11 22:32:00;;;;;;;17.80;9.35;;;;;;;-2.38;71.67;101245.75;31550434;27;126541;-61
2024/01/11 22:47:00;;;;;;;16.10;8.15;;;;;;;-2.35;71.38;101234.34;31573788;27;97244;-59
2024/01/11 23:02:04;;;;;;;17.90;9.20;;;;;;;-2.30;71.96;101228.03;31587762;27;125946;-63
2024/01/11 23:17:05;;;;;;;16.53;8.33;;;;;;;-2.28;71.55;101244.47;31590951;27;97082;-61
2024/01/11 23:32:06;;;;;;;16.02;9.13;;;;;;;-2.21;72.31;101247.69;31593673;27;101054;-63
2024/01/11 23:47:07;;;;;;;17.45;8.52;;;;;;;-2.12;72.31;101247.34;31586135;27;125511;-59
